Time;durP1;ratioP1;P1;durP2;ratioP2;P2;SDS_P1;SDS_P2;PMS_P1;PMS_P2;Temp;Humidity;BMP_temperature;BMP_pressure;BME280_temperature;BME280_humidity;BME280_pressure;Samples;Min_cycle;Max_cycle;Signal;HPM_P1;HPM_P2
2022/10/17 00:00:57;;;;;;;46.80;30.45;;;;;;;18.32;72.71;102319.09;4958588;28;20054;-79
2022/10/17 00:03:24;;;;;;;49.58;31.50;;;;;;;18.13;73.60;102298.50;4972622;28;20695;-76
2022/10/17 00:05:58;;;;;;;51.88;30.45;;;;;;;18.27;73.77;102323.22;4972578;28;20487;-79
2022/10/17 00:08:24;;;;;;;52.13;31.05;;;;;;;18.18;73.53;102305.25;4959725;28;20676;-78
2022/10/17 00:11:00;;;;;;;49.08;29.33;;;;;;;18.32;73.43;102339.75;4967947;28;20161;-77
2022/10/17 00:13:27;;;;;;;50.35;30.27;;;;;;;16.93;73.51;102115.44;4954588;28;20145;-78
2022/10/17 00:15:55;;;;;;;43.00;28.92;;;;;;;18.11;73.61;102315.75;4955301;28;20216;-78
2022/10/17 00:18:22;;;;;;;50.08;29.88;;;;;;;18.00;73.44;102306.00;4955676;28;20523;-78
2022/10/17 00:20:49;;;;;;;47.58;30.05;;;;;;;18.21;73.45;102331.88;4972664;28;20065;-77
2022/10/17 00:23:20;;;;;;;50.85;28.98;;;;;;;18.12;73.71;102337.09;4958883;28;20494;-77
2022/10/17 00:25:47;;;;;;;47.58;30.52;;;;;;;17.69;73.93;102273.06;4971580;28;20435;-77
2022/10/17 00:28:14;;;;;;;44.67;29.75;;;;;;;17.90;74.02;102318.59;4955177;28;20058;-77
2022/10/17 00:30:44;;;;;;;49.67;29.08;;;;;;;18.05;74.46;102344.03;4956770;28;20054;-78
2022/10/17 00:33:10;;;;;;;50.58;29.38;;;;;;;18.01;74.55;102348.03;4970530;28;20144;-79
2022/10/17 00:35:37;;;;;;;47.15;29.08;;;;;;;17.84;74.53;102297.66;4972395;28;20069;-78
2022/10/17 00:38:04;;;;;;;42.45;28.70;;;;;;;18.11;74.09;102340.78;4974074;28;20051;-77
2022/10/17 00:40:33;;;;;;;44.30;28.95;;;;;;;18.00;74.05;102324.81;4971881;28;20089;-76
2022/10/17 00:42:59;;;;;;;44.72;29.85;;;;;;;17.90;73.90;102313.22;4971857;28;20132;-77
2022/10/17 00:45:30;;;;;;;43.70;27.40;;;;;;;18.07;73.96;102358.19;4972197;28;20395;-77
2022/10/17 00:48:07;;;;;;;46.57;29.87;;;;;;;18.05;74.56;102349.41;4955520;28;20512;-75
2022/10/17 00:50:37;;;;;;;44.25;28.13;;;;;;;17.43;74.22;102248.66;4950009;28;20340;-78
2022/10/17 00:53:08;;;;;;;45.30;28.70;;;;;;;17.82;74.32;102316.63;4938594;28;20206;-79
2022/10/17 00:55:49;;;;;;;45.70;27.45;;;;;;;17.88;74.33;102334.00;4937192;28;20432;-78
2022/10/17 00:58:19;;;;;;;43.63;26.85;;;;;;;18.00;74.44;102351.69;4941079;28;20510;-79
2022/10/17 01:00:50;;;;;;;45.58;27.40;;;;;;;18.02;73.96;102356.94;4954585;28;20568;-79
2022/10/17 01:03:17;;;;;;;45.92;27.90;;;;;;;17.98;74.40;102355.50;4946875;28;20098;-78
2022/10/17 01:05:46;;;;;;;44.25;26.65;;;;;;;17.85;74.00;102342.38;4953052;28;20125;-78
2022/10/17 01:08:16;;;;;;;46.90;26.35;;;;;;;17.80;74.40;102342.78;4940020;28;20097;-77
2022/10/17 01:11:12;;;;;;;46.55;26.38;;;;;;;16.74;74.61;102161.81;4954625;28;20704;-77
2022/10/17 01:14:02;;;;;;;42.53;26.00;;;;;;;17.77;74.49;102335.00;4967348;28;20046;-78
2022/10/17 01:16:51;;;;;;;42.47;24.75;;;;;;;17.87;74.42;102348.44;4968853;28;20144;-79
2022/10/17 01:19:53;;;;;;;36.60;24.05;;;;;;;17.75;73.89;102315.47;4969057;28;20531;-77
2022/10/17 01:22:29;;;;;;;;;;;;;;;17.91;74.26;102352.53;4973687;28;20374;-78
2022/10/17 01:25:32;;;;;;;35.22;24.38;;;;;;;17.91;74.36;102352.53;4964841;28;19934;-77
2022/10/17 01:28:20;;;;;;;;;;;;;;;17.90;73.98;102351.69;4966169;28;20600;-78
2022/10/17 01:31:07;;;;;;;37.85;24.80;;;;;;;17.81;73.94;102340.94;4953543;28;19926;-77
2022/10/17 01:33:56;;;;;;;33.95;23.77;;;;;;;17.83;73.81;102349.72;4956370;28;20479;-79
2022/10/17 01:36:56;;;;;;;36.80;22.73;;;;;;;17.76;73.87;102349.41;4974309;28;20097;-79
2022/10/17 01:39:45;;;;;;;36.38;24.17;;;;;;;17.73;73.84;102339.78;4965397;28;20152;-78
2022/10/17 01:42:36;;;;;;;33.97;22.75;;;;;;;17.74;73.96;102340.63;4952499;28;20409;-76
2022/10/17 01:45:13;;;;;;;35.45;22.20;;;;;;;17.61;73.86;102322.13;4958310;28;20090;-79
2022/10/17 01:47:42;;;;;;;35.33;22.70;;;;;;;17.68;74.27;102335.84;4969647;28;20589;-77
2022/10/17 01:50:34;;;;;;;34.38;21.40;;;;;;;17.65;74.14;102342.34;4956637;28;20141;-78
2022/10/17 01:53:13;;;;;;;40.35;22.40;;;;;;;17.35;74.32;102288.75;4973073;28;20050;-76
2022/10/17 01:55:44;;;;;;;34.65;22.77;;;;;;;17.64;74.46;102348.69;4956404;28;20335;-78
2022/10/17 01:58:20;;;;;;;34.53;22.57;;;;;;;17.58;74.52;102330.47;4958236;28;20058;-79
2022/10/17 02:01:02;;;;;;;33.10;23.73;;;;;;;17.59;74.15;102337.50;4959525;28;20308;-76
2022/10/17 02:03:31;;;;;;;36.25;22.02;;;;;;;17.63;74.07;102341.63;4956240;28;20140;-77
2022/10/17 02:05:57;;;;;;;36.95;22.83;;;;;;;17.56;74.00;102332.44;4957761;28;20444;-78
2022/10/17 02:08:39;;;;;;;33.13;21.17;;;;;;;17.56;73.76;102327.06;4956447;28;20042;-77
2022/10/17 02:11:16;;;;;;;28.58;20.90;;;;;;;17.57;73.73;102327.91;4972466;28;20638;-78
2022/10/17 02:14:22;;;;;;;36.80;20.90;;;;;;;17.63;73.59;102347.00;4959532;28;20061;-79
2022/10/17 02:17:17;;;;;;;28.88;20.63;;;;;;;17.55;73.57;102336.13;4973874;28;20163;-77
2022/10/17 02:19:59;;;;;;;37.25;20.35;;;;;;;17.58;73.73;102343.03;4972965;28;20473;-77
2022/10/17 02:22:26;;;;;;;;;;;;;;;17.52;73.76;102342.63;4969984;28;20446;-79
2022/10/17 02:25:13;;;;;;;30.77;19.30;;;;;;;17.30;73.61;102308.78;4974119;28;19925;-80
2022/10/17 02:28:05;;;;;;;29.67;20.00;;;;;;;17.45;73.49;102329.88;4960999;28;20101;-78
2022/10/17 02:30:40;;;;;;;31.80;20.63;;;;;;;17.47;73.49;102339.47;4972343;28;20584;-77
2022/10/17 02:33:13;;;;;;;33.38;20.75;;;;;;;17.42;73.31;102335.53;4973959;28;20112;-78
2022/10/17 02:35:45;;;;;;;25.00;19.23;;;;;;;17.41;73.68;102328.47;4973449;28;20635;-80
2022/10/17 02:38:13;;;;;;;30.23;19.55;;;;;;;17.14;73.41;102275.47;4972432;28;20050;-77
2022/10/17 02:40:45;;;;;;;28.50;19.70;;;;;;;17.46;73.45;102331.56;4974998;28;20316;-76
2022/10/17 02:43:14;;;;;;;31.35;19.60;;;;;;;17.42;73.44;102330.16;4940654;28;20847;-77
2022/10/17 02:45:40;;;;;;;33.85;20.20;;;;;;;17.36;73.64;102325.34;4938461;28;20542;-77
2022/10/17 02:48:13;;;;;;;25.30;20.52;;;;;;;17.36;73.62;102330.72;4938665;28;20591;-77
2022/10/17 02:50:58;;;;;;;27.63;18.60;;;;;;;17.34;73.72;102327.31;4938090;28;20121;-77
2022/10/17 02:53:39;;;;;;;26.15;19.35;;;;;;;17.22;73.84;102324.75;4951211;28;20504;-78
2022/10/17 02:56:17;;;;;;;33.10;19.42;;;;;;;17.23;73.99;102333.63;4938664;28;20489;-78
2022/10/17 02:58:50;;;;;;;29.38;18.05;;;;;;;17.06;74.08;102302.94;4954004;28;20058;-79
2022/10/17 03:01:19;;;;;;;24.77;18.50;;;;;;;17.29;73.57;102339.31;4935222;28;20535;-78
2022/10/17 03:03:46;;;;;;;26.85;17.45;;;;;;;17.33;73.39;102339.03;4937417;28;20502;-78
2022/10/17 03:06:18;;;;;;;29.15;18.00;;;;;;;17.32;73.77;102345.41;4954224;28;20047;-78
2022/10/17 03:08:48;;;;;;;32.25;19.48;;;;;;;17.30;73.68;102338.31;4943259;28;20170;-80
2022/10/17 03:11:15;;;;;;;26.00;18.10;;;;;;;17.29;73.66;102331.25;4971924;28;20393;-77
2022/10/17 03:13:42;;;;;;;25.83;16.92;;;;;;;17.27;73.72;102333.22;4972140;28;20132;-78
2022/10/17 03:16:08;;;;;;;26.27;16.92;;;;;;;17.29;73.46;102330.41;4975606;28;20081;-78
2022/10/17 03:18:38;;;;;;;23.35;16.85;;;;;;;17.06;73.90;102306.50;4957568;28;20467;-78
2022/10/17 03:21:05;;;;;;;30.40;18.40;;;;;;;17.24;73.46;102333.50;4972491;28;20666;-78
2022/10/17 03:23:33;;;;;;;25.25;17.23;;;;;;;17.14;73.64;102316.56;4972912;28;20069;-77
2022/10/17 03:26:07;;;;;;;28.58;17.88;;;;;;;17.20;73.58;102339.28;4972290;28;20138;-78
2022/10/17 03:28:34;;;;;;;29.27;18.48;;;;;;;17.23;73.72;102358.66;4973704;28;20509;-77
2022/10/17 03:31:09;;;;;;;26.42;18.83;;;;;;;16.97;73.55;102319.91;4956802;28;20057;-78
2022/10/17 03:33:36;;;;;;;27.73;18.38;;;;;;;16.96;74.14;102339.66;4961734;28;20155;-78
2022/10/17 03:36:15;;;;;;;27.83;18.73;;;;;;;17.05;74.50;102352.25;4972166;28;20145;-78
2022/10/17 03:38:44;;;;;;;29.20;19.27;;;;;;;16.61;74.15;102288.09;4974393;28;20376;-77
2022/10/17 03:41:14;;;;;;;32.13;19.08;;;;;;;17.13;74.59;102367.66;4954335;28;20051;-79
2022/10/17 03:43:41;;;;;;;30.23;18.73;;;;;;;17.04;74.61;102361.28;4954442;28;20069;-78
2022/10/17 03:46:11;;;;;;;29.30;19.58;;;;;;;17.08;74.50;102376.13;4955749;28;20125;-77
2022/10/17 03:48:40;;;;;;;25.92;18.65;;;;;;;16.97;74.49;102350.25;4944217;28;20421;-78
2022/10/17 03:51:08;;;;;;;25.33;17.38;;;;;;;17.08;74.35;102368.06;4956130;28;20202;-79
2022/10/17 03:53:35;;;;;;;22.75;18.45;;;;;;;17.22;74.40;102370.38;4958460;28;20132;-80
2022/10/17 03:56:20;;;;;;;27.30;19.27;;;;;;;17.06;74.40;102345.88;4958842;28;20064;-78
2022/10/17 03:58:47;;;;;;;26.25;17.80;;;;;;;17.07;73.77;102348.44;4974842;28;20503;-78
2022/10/17 04:01:16;;;;;;;27.17;17.92;;;;;;;17.21;74.09;102376.75;4957447;28;20090;-78
2022/10/17 04:03:51;;;;;;;28.20;17.77;;;;;;;17.16;74.33;102384.34;4959404;28;20804;-77
2022/10/17 04:06:18;;;;;;;27.88;20.00;;;;;;;16.99;74.23;102360.81;4959285;28;20179;-78
2022/10/17 04:08:47;;;;;;;29.35;18.58;;;;;;;16.99;74.37;102363.50;4960197;28;20069;-78
2022/10/17 04:11:18;;;;;;;29.20;19.45;;;;;;;17.11;74.64;102391.94;4975426;28;20050;-77
2022/10/17 04:13:45;;;;;;;30.13;19.08;;;;;;;16.86;74.78;102356.53;4972923;28;20567;-76
2022/10/17 04:16:15;;;;;;;24.23;18.27;;;;;;;16.94;74.71;102369.28;4972317;28;20429;-78
2022/10/17 04:18:42;;;;;;;28.33;18.77;;;;;;;17.03;74.92;102389.09;4972669;28;20054;-78
2022/10/17 04:21:13;;;;;;;28.23;18.77;;;;;;;17.04;74.78;102401.53;4972402;28;20058;-77
2022/10/17 04:23:44;;;;;;;27.80;18.20;;;;;;;17.00;74.44;102408.16;4958287;28;20054;-77
2022/10/17 04:26:10;;;;;;;29.23;17.25;;;;;;;16.95;74.33;102405.88;4954203;28;20046;-78
2022/10/17 04:28:37;;;;;;;27.27;17.83;;;;;;;16.93;74.82;102405.16;4970746;28;20054;-78
2022/10/17 04:31:14;;;;;;;24.08;18.10;;;;;;;16.94;74.86;102408.69;4954974;28;20314;-77
2022/10/17 04:33:42;;;;;;;23.05;17.27;;;;;;;16.96;74.97;102406.72;4969845;28;20058;-76
2022/10/17 04:36:13;;;;;;;25.30;17.85;;;;;;;16.94;74.82;102401.47;4972136;28;20050;-78
2022/10/17 04:38:48;;;;;;;27.88;18.08;;;;;;;16.85;74.58;102399.63;4971694;28;20050;-78
2022/10/17 04:41:17;;;;;;;29.73;17.63;;;;;;;16.72;74.68;102404.31;4973558;28;20472;-76
2022/10/17 04:43:48;;;;;;;28.73;17.10;;;;;;;16.86;74.87;102414.72;4971842;28;20279;-76
2022/10/17 04:46:17;;;;;;;29.52;17.77;;;;;;;16.23;74.79;102324.44;4955785;28;20221;-77
2022/10/17 04:48:50;;;;;;;23.40;16.30;;;;;;;16.59;75.06;102375.03;4956891;28;20060;-78
2022/10/17 04:51:20;;;;;;;23.50;17.50;;;;;;;16.81;75.08;102403.53;4965198;28;20046;-78
2022/10/17 04:53:58;;;;;;;27.80;17.45;;;;;;;16.94;74.88;102424.78;4955952;28;20057;-79
2022/10/17 04:56:27;;;;;;;26.77;18.02;;;;;;;16.79;74.64;102397.47;4956199;28;20058;-78
2022/10/17 04:58:58;;;;;;;25.48;17.17;;;;;;;16.82;74.73;102411.47;4954783;28;20166;-77
2022/10/17 05:01:25;;;;;;;24.58;17.35;;;;;;;16.87;74.78;102417.28;4954527;28;20085;-79
2022/10/17 05:03:53;;;;;;;29.80;20.83;;;;;;;16.83;74.97;102425.72;4955309;28;20065;-79
2022/10/17 05:06:24;;;;;;;25.05;18.70;;;;;;;16.67;74.42;102399.34;4957756;28;20058;-78
2022/10/17 05:08:52;;;;;;;23.67;16.98;;;;;;;16.79;74.58;102438.53;4955349;28;20515;-79
2022/10/17 05:11:24;;;;;;;29.45;17.33;;;;;;;16.78;74.98;102439.53;4961238;28;20105;-78
2022/10/17 05:13:53;;;;;;;28.13;17.35;;;;;;;16.38;74.95;102370.53;4976259;28;20575;-78
2022/10/17 05:16:20;;;;;;;35.53;17.83;;;;;;;16.81;74.96;102446.47;4958412;28;20474;-77
2022/10/17 05:18:53;;;;;;;24.48;16.38;;;;;;;16.89;74.65;102446.63;4960690;28;20458;-78
2022/10/17 05:21:26;;;;;;;;;;;;;;;16.87;74.79;102460.19;4959905;28;20069;-78
2022/10/17 05:23:53;;;;;;;39.67;17.02;;;;;;;16.88;74.47;102461.88;4962573;28;20020;-76
2022/10/17 05:26:22;;;;;;;27.67;17.63;;;;;;;16.68;74.46;102441.28;4958084;28;20137;-77
2022/10/17 05:28:51;;;;;;;25.27;16.15;;;;;;;16.82;74.66;102454.38;4962769;28;20158;-76
2022/10/17 05:31:26;;;;;;;26.08;17.95;;;;;;;16.86;75.00;102461.16;4962154;28;20506;-79
2022/10/17 05:34:01;;;;;;;40.03;20.77;;;;;;;16.84;74.47;102443.50;4959416;28;20524;-77
2022/10/17 05:36:27;;;;;;;;;;;;;;;16.99;73.97;102468.16;4953694;28;20137;-78
2022/10/17 05:38:54;;;;;;;25.27;18.33;;;;;;;17.08;74.00;102470.03;4955838;28;20288;-78
2022/10/17 05:41:21;;;;;;;28.23;18.77;;;;;;;16.75;73.69;102407.59;4979007;28;20774;-79
2022/10/17 05:43:49;;;;;;;32.70;18.38;;;;;;;17.07;73.58;102462.97;4976280;28;20545;-79
2022/10/17 05:46:19;;;;;;;29.27;18.77;;;;;;;16.88;73.47;102435.06;4966703;28;20512;-77
2022/10/17 05:48:45;;;;;;;33.20;18.58;;;;;;;17.09;73.87;102485.16;4962942;28;20484;-78
2022/10/17 05:51:12;;;;;;;26.95;18.63;;;;;;;16.79;73.69;102441.22;4959114;28;20552;-77
2022/10/17 05:53:40;;;;;;;35.78;18.40;;;;;;;17.03;73.88;102480.31;4956943;28;20058;-78
2022/10/17 05:56:10;;;;;;;28.80;18.02;;;;;;;16.99;73.61;102474.38;4958443;28;20058;-78
2022/10/17 05:58:42;;;;;;;32.20;18.88;;;;;;;17.02;74.15;102489.38;4955121;28;20054;-77
2022/10/17 06:01:20;;;;;;;31.88;18.95;;;;;;;17.04;73.98;102498.97;4958268;28;20158;-78
2022/10/17 06:03:52;;;;;;;36.92;20.20;;;;;;;17.01;73.82;102498.38;4958068;28;20046;-78
2022/10/17 06:06:22;;;;;;;30.67;20.10;;;;;;;17.02;73.84;102505.47;4959162;28;20050;-78
2022/10/17 06:08:56;;;;;;;30.38;18.50;;;;;;;17.09;74.06;102514.69;4958273;28;20453;-77
2022/10/17 06:11:22;;;;;;;30.08;20.10;;;;;;;17.09;73.60;102520.06;4976322;28;20082;-78
2022/10/17 06:13:49;;;;;;;33.67;20.02;;;;;;;16.81;74.05;102484.84;4958618;28;20051;-77
2022/10/17 06:16:16;;;;;;;36.25;20.70;;;;;;;17.09;73.58;102522.72;4958835;28;20092;-78
2022/10/17 06:18:42;;;;;;;28.70;19.15;;;;;;;17.07;73.21;102522.84;4957669;28;20917;-78
2022/10/17 06:21:16;;;;;;;34.72;20.52;;;;;;;17.11;73.35;102531.47;4957271;28;20144;-78
2022/10/17 06:23:42;;;;;;;26.98;19.77;;;;;;;17.07;73.12;102509.44;4959862;28;20072;-78
2022/10/17 06:26:09;;;;;;;35.83;20.73;;;;;;;17.25;72.63;102544.56;4955832;28;20046;-77
2022/10/17 06:28:36;;;;;;;31.85;20.83;;;;;;;17.32;72.66;102538.66;4937741;28;20600;-78
2022/10/17 06:31:06;;;;;;;34.60;21.20;;;;;;;17.24;72.71;102531.28;4948043;28;20278;-77
2022/10/17 06:33:33;;;;;;;26.45;19.27;;;;;;;17.34;72.61;102536.69;4956987;28;20054;-77
2022/10/17 06:36:00;;;;;;;37.50;20.77;;;;;;;17.47;72.21;102550.75;4958161;28;20058;-76
2022/10/17 06:38:27;;;;;;;31.85;20.70;;;;;;;16.83;71.70;102439.97;4960824;28;20050;-77
2022/10/17 06:41:01;;;;;;;33.55;19.75;;;;;;;17.51;71.64;102557.56;4971059;28;20054;-84
2022/10/17 06:43:30;;;;;;;32.72;20.17;;;;;;;17.49;71.90;102540.72;4952986;28;20826;-77
2022/10/17 06:45:57;;;;;;;31.17;20.20;;;;;;;17.44;72.24;102534.91;4951345;28;20880;-78
2022/10/17 06:48:29;;;;;;;29.15;20.40;;;;;;;17.39;71.69;102513.00;4963229;28;20607;-77
2022/10/17 06:51:08;;;;;;;33.63;20.85;;;;;;;17.70;71.78;102559.47;4975237;28;20046;-78
2022/10/17 06:53:38;;;;;;;28.05;19.70;;;;;;;17.91;70.63;102556.72;4984565;28;20049;-76
2022/10/17 06:56:08;;;;;;;;;;;;;;;17.81;71.17;102569.28;4983045;28;20057;-78
2022/10/17 06:58:38;;;;;;;32.17;19.88;;;;;;;17.99;70.76;102567.66;4979889;28;20462;-78
2022/10/17 07:01:12;;;;;;;38.95;21.45;;;;;;;17.76;71.24;102564.28;4981206;28;20619;-79
2022/10/17 07:03:40;;;;;;;;;;;;;;;17.79;71.55;102571.22;4980313;28;20151;-77
2022/10/17 07:06:09;;;;;;;36.58;20.13;;;;;;;17.78;71.01;102561.47;4985031;28;20009;-80
2022/10/17 07:08:39;;;;;;;30.67;20.58;;;;;;;17.95;70.55;102574.28;4974781;28;20054;-78
2022/10/17 07:11:14;;;;;;;33.20;22.08;;;;;;;17.84;70.41;102551.06;4970716;28;20669;-79
2022/10/17 07:13:42;;;;;;;80.00;27.42;;;;;;;18.07;70.65;102573.19;4940685;28;20161;-85
2022/10/17 07:16:10;;;;;;;34.55;23.33;;;;;;;18.24;70.50;102578.88;4957326;28;20660;-85
2022/10/17 07:18:40;;;;;;;47.30;26.20;;;;;;;18.28;69.93;102583.00;4956626;28;20588;-85
2022/10/17 07:21:08;;;;;;;58.75;28.75;;;;;;;18.29;69.63;102571.25;4957140;28;20066;-79
2022/10/17 07:23:38;;;;;;;44.90;20.85;;;;;;;18.36;69.56;102572.41;4957183;28;20516;-78
2022/10/17 07:26:09;;;;;;;49.67;32.50;;;;;;;18.34;68.81;102551.00;4954952;28;20116;-78
2022/10/17 07:28:44;;;;;;;46.35;29.98;;;;;;;18.42;68.53;102561.06;4952720;28;20239;-77
2022/10/17 07:31:15;;;;;;;48.63;29.98;;;;;;;18.46;68.25;102561.66;4952537;28;20046;-77
2022/10/17 07:33:42;;;;;;;57.55;31.33;;;;;;;18.55;68.64;102566.19;4953808;28;20046;-79
2022/10/17 07:36:10;;;;;;;55.30;31.67;;;;;;;18.63;68.98;102574.38;4952622;28;20533;-78
2022/10/17 07:38:36;;;;;;;52.53;31.92;;;;;;;18.68;68.11;102561.34;4954864;28;20054;-78
2022/10/17 07:41:05;;;;;;;54.05;32.03;;;;;;;18.43;68.15;102514.38;4954188;28;20085;-79
2022/10/17 07:43:33;;;;;;;49.88;31.27;;;;;;;18.87;67.92;102571.28;4954651;28;20829;-79
2022/10/17 07:46:05;;;;;;;57.53;29.70;;;;;;;18.66;67.80;102535.59;4973090;28;20128;-79
2022/10/17 07:48:32;;;;;;;38.33;23.80;;;;;;;19.00;67.53;102577.25;4958574;28;20132;-77
2022/10/17 07:51:04;;;;;;;35.65;22.77;;;;;;;18.92;67.11;102547.50;4951798;28;20424;-77
2022/10/17 07:53:33;;;;;;;63.58;37.47;;;;;;;19.10;66.60;102574.53;4953235;28;20276;-78
2022/10/17 07:56:03;;;;;;;56.10;35.20;;;;;;;19.18;65.91;102563.88;4956249;28;20049;-78
2022/10/17 07:58:33;;;;;;;49.55;30.88;;;;;;;19.17;66.31;102588.25;4953723;28;20430;-77
2022/10/17 08:01:02;;;;;;;62.40;37.13;;;;;;;19.19;66.64;102587.09;4954002;28;20077;-77
2022/10/17 08:03:34;;;;;;;67.18;39.22;;;;;;;19.11;66.70;102570.00;4962024;28;20052;-80
2022/10/17 08:06:03;;;;;;;53.83;31.50;;;;;;;19.13;66.68;102576.94;4955410;28;20058;-78
2022/10/17 08:08:33;;;;;;;56.78;31.30;;;;;;;18.61;66.93;102479.53;4954271;28;20065;-77
2022/10/17 08:11:07;;;;;;;51.33;30.85;;;;;;;19.18;66.93;102573.81;4972625;28;20140;-79
2022/10/17 08:13:35;;;;;;;56.25;32.53;;;;;;;19.24;67.09;102583.97;4969173;28;20816;-79
2022/10/17 08:16:09;;;;;;;50.05;30.63;;;;;;;19.31;67.16;102590.47;4953145;28;20053;-78
2022/10/17 08:18:39;;;;;;;54.95;31.67;;;;;;;19.40;67.14;102595.00;4937513;28;20050;-77
2022/10/17 08:21:07;;;;;;;56.05;32.38;;;;;;;19.40;66.62;102575.31;4955630;28;20050;-79
2022/10/17 08:23:43;;;;;;;52.88;36.50;;;;;;;19.50;66.23;102588.75;4951880;28;20364;-77
2022/10/17 08:26:12;;;;;;;62.97;38.53;;;;;;;19.58;66.01;102591.53;4954977;28;20050;-78
2022/10/17 08:28:41;;;;;;;38.33;25.23;;;;;;;19.36;66.35;102550.50;4954625;28;20529;-78
2022/10/17 08:31:13;;;;;;;52.95;29.98;;;;;;;19.54;66.61;102573.97;4955280;28;20336;-79
2022/10/17 08:33:43;;;;;;;;;;;;;;;19.72;66.48;102585.69;4951292;28;20858;-79
2022/10/17 08:36:17;;;;;;;64.80;37.05;;;;;;;19.41;66.36;102523.97;4882759;28;20183;-81
2022/10/17 08:38:44;;;;;;;55.67;34.58;;;;;;;19.85;66.14;102583.53;4948352;28;20046;-78
2022/10/17 08:41:55;;;;;;;64.68;37.53;;;;;;;19.95;65.61;102582.59;4950707;28;20457;-78
2022/10/17 08:44:49;;;;;;;54.78;35.45;;;;;;;19.54;65.15;102514.69;4957193;28;20054;-79
2022/10/17 08:47:25;;;;;;;68.80;37.17;;;;;;;20.09;65.22;102592.03;4957233;28;20370;-80
2022/10/17 08:49:57;;;;;;;55.67;33.83;;;;;;;20.16;65.36;102591.28;4970250;28;20169;-79
2022/10/17 08:53:01;;;;;;;65.22;37.30;;;;;;;20.32;63.66;102579.00;4942696;28;20050;-78
2022/10/17 08:55:37;;;;;;;48.80;31.40;;;;;;;20.35;63.88;102584.91;4954681;28;20046;-79
2022/10/17 08:58:27;;;;;;;44.53;27.60;;;;;;;20.39;64.10;102583.63;4918030;28;21335;-79
2022/10/17 09:01:18;;;;;;;58.17;33.65;;;;;;;20.18;63.88;102529.97;4947074;28;20047;-78
2022/10/17 09:04:11;;;;;;;59.00;37.35;;;;;;;20.67;62.81;102589.81;4955508;28;20520;-78
2022/10/17 09:07:16;;;;;;;52.63;32.92;;;;;;;20.70;62.32;102592.22;4946957;28;20038;-76
2022/10/17 09:10:17;;;;;;;52.72;33.40;;;;;;;20.80;62.00;102589.44;4949205;28;20166;-78
2022/10/17 09:13:27;;;;;;;38.78;25.08;;;;;;;20.91;61.86;102581.06;4934745;28;20137;-79
2022/10/17 09:16:33;;;;;;;52.90;32.00;;;;;;;21.02;62.02;102585.38;4937124;28;20570;-78
2022/10/17 09:19:11;;;;;;;;;;;;;;;21.04;61.39;102580.66;4956174;28;20098;-79
2022/10/17 09:21:44;;;;;;;53.13;33.13;;;;;;;21.24;61.18;102583.16;4953967;28;20518;-81
2022/10/17 09:24:36;;;;;;;51.60;33.42;;;;;;;21.32;61.09;102583.22;4955398;28;20406;-79
2022/10/17 09:27:04;;;;;;;57.40;31.98;;;;;;;21.28;60.50;102565.63;4953309;28;20055;-79
2022/10/17 09:29:31;;;;;;;60.75;35.47;;;;;;;21.11;60.44;102522.31;4955758;28;20490;-78
2022/10/17 09:32:19;;;;;;;56.92;33.42;;;;;;;21.39;59.91;102565.41;4955721;28;20226;-76
2022/10/17 09:34:50;;;;;;;53.15;32.17;;;;;;;21.21;59.85;102530.28;4957713;28;20065;-78
2022/10/17 09:37:25;;;;;;;54.75;34.60;;;;;;;21.18;60.43;102518.97;4958542;28;20038;-77
2022/10/17 09:39:54;;;;;;;48.40;29.88;;;;;;;21.67;60.16;102586.81;4957672;28;20581;-77
2022/10/17 09:42:26;;;;;;;41.75;28.98;;;;;;;20.68;60.09;102412.53;4955338;28;20050;-77
2022/10/17 09:45:00;;;;;;;52.30;31.92;;;;;;;21.66;59.49;102555.41;4956691;28;20053;-78
2022/10/17 09:48:08;;;;;;;47.88;31.38;;;;;;;21.94;59.34;102586.59;4952928;28;20390;-79
2022/10/17 09:50:36;;;;;;;50.75;33.35;;;;;;;21.97;59.30;102570.03;4945208;28;20046;-77
2022/10/17 09:53:48;;;;;;;52.03;32.70;;;;;;;22.22;58.76;102582.84;4952403;28;20057;-81
2022/10/17 09:56:17;;;;;;;55.15;36.25;;;;;;;21.77;58.49;102501.03;4941830;28;20468;-77
2022/10/17 09:58:52;;;;;;;45.20;27.92;;;;;;;22.33;58.63;102583.38;4954129;28;20058;-76
2022/10/17 10:01:27;;;;;;;44.15;29.58;;;;;;;21.85;58.03;102481.31;4955318;28;20618;-78
2022/10/17 10:04:12;;;;;;;59.72;35.83;;;;;;;22.42;57.63;102572.53;4957572;28;20604;-77
2022/10/17 10:07:03;;;;;;;53.75;33.30;;;;;;;22.07;57.97;102540.16;4957526;28;20409;-78
2022/10/17 10:09:31;;;;;;;48.60;28.77;;;;;;;21.94;58.49;102513.59;4956772;28;20058;-79
2022/10/17 10:12:21;;;;;;;60.83;37.85;;;;;;;22.51;57.68;102568.84;4938326;28;20611;-77
2022/10/17 10:14:51;;;;;;;52.78;33.35;;;;;;;22.37;57.70;102544.13;4954921;28;20050;-77
2022/10/17 10:17:42;;;;;;;51.90;36.08;;;;;;;22.67;57.78;102587.81;4972065;28;20050;-80
2022/10/17 10:20:30;;;;;;;61.60;37.70;;;;;;;22.67;57.20;102590.50;4955474;28;20042;-77
2022/10/17 10:23:23;;;;;;;63.25;38.25;;;;;;;22.35;56.97;102510.97;4957151;28;20214;-79
2022/10/17 10:25:56;;;;;;;51.17;32.90;;;;;;;22.88;56.68;102575.63;4955550;28;20054;-77
2022/10/17 10:28:35;;;;;;;42.38;27.38;;;;;;;23.10;56.36;102584.94;4963826;28;20228;-80
2022/10/17 10:31:06;;;;;;;58.25;37.33;;;;;;;23.00;56.36;102585.94;4964344;28;20060;-78
2022/10/17 10:33:40;;;;;;;63.95;37.45;;;;;;;22.97;56.08;102574.59;4964097;28;20082;-78
2022/10/17 10:36:08;;;;;;;50.85;32.92;;;;;;;23.04;56.15;102570.22;4963586;28;20552;-78
2022/10/17 10:38:42;;;;;;;53.95;34.30;;;;;;;23.21;55.85;102582.72;4964897;28;20156;-79
2022/10/17 10:41:10;;;;;;;56.17;31.67;;;;;;;22.86;56.02;102518.06;4962361;28;20050;-78
2022/10/17 10:43:42;;;;;;;60.25;34.85;;;;;;;23.04;55.61;102548.56;4967281;28;20061;-78
2022/10/17 10:46:19;;;;;;;;;;;;;;;23.25;55.45;102583.19;4980600;28;20050;-77
2022/10/17 10:48:58;;;;;;;59.92;37.95;;;;;;;23.39;55.24;102584.38;4962859;28;19921;-79
2022/10/17 10:51:41;;;;;;;43.10;28.85;;;;;;;23.42;55.18;102584.00;4960591;28;20050;-78
2022/10/17 10:54:21;;;;;;;44.42;31.35;;;;;;;23.25;55.37;102566.94;4978895;28;20046;-77
2022/10/17 10:56:57;;;;;;;45.00;26.00;;;;;;;23.20;55.30;102548.50;4959302;28;20046;-78
2022/10/17 11:00:11;;;;;;;45.45;29.30;;;;;;;23.30;55.50;102574.56;4944090;28;20038;-78
2022/10/17 11:03:01;;;;;;;62.22;39.38;;;;;;;23.10;55.19;102541.59;4946594;28;20424;-78
2022/10/17 11:05:48;;;;;;;37.75;27.30;;;;;;;22.68;56.30;102510.16;4961296;28;20046;-80
2022/10/17 11:09:03;;;;;;;51.15;32.08;;;;;;;22.67;56.58;102501.19;4970897;28;20050;-78
2022/10/17 11:11:44;;;;;;;37.97;23.08;;;;;;;22.98;56.18;102570.88;4904337;29;20047;-79
2022/10/17 11:14:42;;;;;;;33.97;22.58;;;;;;;22.72;56.61;102554.78;4887044;28;20075;-78
2022/10/17 11:17:20;;;;;;;51.53;31.08;;;;;;;22.56;56.21;102501.50;4927332;28;20531;-78
2022/10/17 11:20:31;;;;;;;32.75;22.40;;;;;;;22.23;57.16;102489.81;4962798;28;20073;-78
2022/10/17 11:23:13;;;;;;;42.15;26.27;;;;;;;22.35;57.64;102529.06;4903716;29;20059;-78
2022/10/17 11:25:41;;;;;;;48.45;30.42;;;;;;;22.06;57.25;102470.00;4921350;29;20174;-79
2022/10/17 11:28:22;;;;;;;27.52;20.48;;;;;;;22.49;57.31;102550.06;4936256;28;20566;-75
2022/10/17 11:30:54;;;;;;;27.27;20.67;;;;;;;22.93;56.30;102559.69;4957723;28;20425;-79
2022/10/17 11:34:00;;;;;;;35.10;20.27;;;;;;;22.74;56.20;102536.53;4963776;28;20260;-78
2022/10/17 11:36:39;;;;;;;33.50;21.92;;;;;;;22.46;57.63;102554.97;4926030;28;20078;-78
2022/10/17 11:39:25;;;;;;;58.80;33.00;;;;;;;21.82;58.15;102455.44;4970066;28;20057;-76
2022/10/17 11:42:07;;;;;;;59.80;37.08;;;;;;;22.07;57.96;102509.56;4941354;28;20437;-81
2022/10/17 11:44:39;;;;;;;31.48;21.10;;;;;;;21.88;57.16;102448.53;4960019;28;20547;-79
2022/10/17 11:47:44;;;;;;;36.85;22.67;;;;;;;22.33;57.62;102531.97;4962167;28;20537;-76